Sunday, October 22, 2017, 8:31 PM EDT
Back to Local

KPTW, Pottstown Limerick Airport

Location: Royersford, PA, United States Lat: 40.233
Local Time: 8:31 PM EDT ( 0:31 GMT) Lon: -75.55
Time Zone: US/Eastern Elev: 291 ft

Show me the last for .
Show Coded

Time T Td Feel RH Dir Speed Gust Alt SLP Vis Weather Sky Remarks
2017-10-22 19:54 57 49 - 74 - Calm - 30.35 30.34 10 CLR 6-hr Min Temp (8pm): 57.0°F
6-hr Max Temp (8pm): 73.0°F
2017-10-22 18:54 60 49 - 66 - Calm - 30.34 30.34 10 CLR None
2017-10-22 17:54 67 47 - 48 - Calm - 30.34 30.34 10 CLR None
2017-10-22 16:54 72 45 - 38 Variable 6 - 30.35 30.34 10 CLR None
2017-10-22 15:54 73 44 - 35 Variable 5 - 30.36 30.35 10 CLR None
2017-10-22 14:54 72 45 - 38 Variable 5 - 30.36 30.35 10 CLR None
2017-10-22 13:54 72 47 75 40 Variable 7 - 30.38 30.37 10 CLR 6-hr Min Temp (2pm): 42.1°F
6-hr Max Temp (2pm): 72.0°F
2017-10-22 12:54 70 48 - 45 - Calm - 30.40 30.39 10 CLR None
2017-10-22 11:54 67 47 - 48 Variable 5 - 30.41 30.40 9 CLR None
2017-10-22 10:54 62 49 - 62 - Calm - 30.42 30.41 8 CLR None
2017-10-22 09:54 55 50 - 83 - Calm - 30.43 30.42 8 CLR None
2017-10-22 08:54 49 49 - 100 - Calm - 30.43 30.42 7 CLR None
2017-10-22 07:54 42 42 - 100 - Calm - 30.42 30.42 6 BR CLR 6-hr Min Temp (8am): 41.0°F
6-hr Max Temp (8am): 46.0°F
2017-10-22 06:54 41 41 - 100 - Calm - 30.41 30.40 6 BR CLR None
2017-10-22 05:54 42 42 - 100 - Calm - 30.40 30.39 7 CLR None
2017-10-22 04:54 42 42 - 100 - Calm - 30.38 30.37 7 CLR None
2017-10-22 03:54 44 44 - 100 - Calm - 30.37 30.36 7 CLR None
2017-10-22 02:54 45 44 - 96 - Calm - 30.38 30.37 8 CLR None
2017-10-22 01:54 46 45 - 95 - Calm - 30.37 30.36 9 CLR 6-hr Min Temp (2am): 46.0°F
6-hr Max Temp (2am): 55.9°F
2017-10-22 00:54 47 45 - 92 - Calm - 30.38 30.37 9 CLR 24-hr Min Temp (1am): 37.9°F
24-hr Max Temp (1am): 75.0°F
2017-10-21 23:54 48 45 - 89 - Calm - 30.38 30.37 9 CLR None
2017-10-21 22:54 49 46 - 89 - Calm - 30.38 30.37 8 CLR None
2017-10-21 21:54 52 48 - 86 - Calm - 30.38 30.37 9 CLR None
2017-10-21 20:54 52 48 - 86 - Calm - 30.38 30.37 10 CLR None

Support USWX by starting your Amazon purchase here.